KOFK/OFK METAR and TAF weather

Enter ICAO airport designator
Station Type Date Time Source
KOFK METAR 2020/09/20 14:56 UTC NOAA

KOFK 201456Z AUTO 17015G26KT 10SM CLR 18/11 A3008 RMK AO2 PK WND 17026/1423 SLP180 T01830111


Station Type Date Time Source
KOFK Decoded METAR 2020/09/20 14:56 UTC NOAA

KARL STEFAN MEMORIAL AIRPORT, NE, United States (KOFK) 41-59N 097-26W 470M
Sep 20, 2020 - 10:56 AM EDT / 2020.09.20 1456 UTC
Wind: from the S (170 degrees) at 17 MPH (15 KT) gusting to 30 MPH (26 KT):0
Visibility: 10 mile(s):0
Sky conditions: clear
Temperature: 64.9 F (18.3 C)
Dew Point: 52.0 F (11.1 C)
Relative Humidity: 62%
Pressure (altimeter): 30.08 in. Hg (1018 hPa)
Pressure tendency: 0.01 inches (0.4 hPa) higher than three hours ago
ob: KOFK 201456Z AUTO 17015G26KT 10SM CLR 18/11 A3008 RMK AO2 PK WND 17026/1423 SLP180 T01830111 53004
cycle: 15

Station Type Date Time Source
KOFK TAF 2020/09/20 12:22 UTC NOAA

TAF KOFK 201120Z 2012/2112 17016G23KT P6SM SCT250 WS020/20050KT
FM201500 18021G32KT P6SM SCT250
FM210000 17017G25KT P6SM SCT250
FM210700 18012KT P6SM FEW250 WS020/21040KT

Example: see airport list